Time;durP1;ratioP1;P1;durP2;ratioP2;P2;SDS_P1;SDS_P2;PMS_P1;PMS_P2;Temp;Humidity;BMP_temperature;BMP_pressure;BME280_temperature;BME280_humidity;BME280_pressure;Samples;Min_cycle;Max_cycle;Signal;HPM_P1;HPM_P2
2023/02/05 00:00:16;;;;;;;2.23;1.40;;;7.00;45.70;;;;;;5032548;28;20068;-71
2023/02/05 00:02:43;;;;;;;1.50;0.97;;;7.00;45.40;;;;;;5032901;28;20037;-72
2023/02/05 00:05:09;;;;;;;2.53;1.20;;;6.90;45.90;;;;;;5033316;28;20468;-72
2023/02/05 00:07:34;;;;;;;2.53;1.40;;;6.90;45.90;;;;;;5032885;28;20048;-72
2023/02/05 00:10:00;;;;;;;6.70;1.40;;;6.90;46.10;;;;;;5033249;28;20135;-72
2023/02/05 00:12:26;;;;;;;1.97;1.10;;;6.80;46.60;;;;;;5032993;28;20495;-72
2023/02/05 00:14:52;;;;;;;3.00;1.17;;;6.80;46.50;;;;;;5032754;28;20079;-71
2023/02/05 00:17:18;;;;;;;2.43;1.10;;;6.90;45.90;;;;;;5032054;28;20065;-71
2023/02/05 00:19:44;;;;;;;3.17;1.20;;;6.90;45.70;;;;;;5032832;28;20041;-71
2023/02/05 00:22:09;;;;;;;1.83;1.10;;;6.80;46.10;;;;;;5033027;28;20510;-71
2023/02/05 00:24:35;;;;;;;1.90;1.20;;;6.70;46.30;;;;;;5032776;28;20108;-72
2023/02/05 00:27:01;;;;;;;2.03;1.10;;;6.70;46.70;;;;;;5032949;28;20033;-71
2023/02/05 00:29:27;;;;;;;3.03;1.60;;;6.70;47.10;;;;;;5032832;28;20040;-72
2023/02/05 00:31:53;;;;;;;3.77;1.40;;;6.70;46.50;;;;;;5032514;28;20037;-71
2023/02/05 00:34:18;;;;;;;2.10;1.30;;;6.70;46.70;;;;;;5032334;28;20045;-71
2023/02/05 00:36:44;;;;;;;2.83;1.40;;;6.60;46.30;;;;;;5032383;28;20044;-71
2023/02/05 00:39:11;;;;;;;2.27;1.30;;;6.60;46.40;;;;;;5032600;28;20091;-71
2023/02/05 00:41:37;;;;;;;1.80;1.00;;;6.60;46.70;;;;;;5032665;28;20033;-71
2023/02/05 00:44:03;;;;;;;2.00;1.10;;;6.50;46.00;;;;;;5032665;28;20044;-71
2023/02/05 00:46:29;;;;;;;4.80;1.40;;;6.50;46.80;;;;;;5032387;28;20026;-71
2023/02/05 00:48:55;;;;;;;3.03;1.60;;;6.50;47.10;;;;;;5032494;28;20091;-71
2023/02/05 00:51:21;;;;;;;2.50;1.23;;;6.50;46.80;;;;;;5032466;28;20030;-71
2023/02/05 00:53:46;;;;;;;2.97;1.10;;;6.40;46.70;;;;;;5032311;28;20063;-71
2023/02/05 00:56:12;;;;;;;1.90;1.10;;;6.40;47.00;;;;;;5032333;28;20048;-71
2023/02/05 00:58:38;;;;;;;4.03;1.10;;;6.40;47.10;;;;;;5032280;28;20045;-71
2023/02/05 01:01:04;;;;;;;2.77;1.23;;;6.40;47.30;;;;;;5031967;28;20080;-71
2023/02/05 01:03:30;;;;;;;2.27;1.10;;;6.30;47.40;;;;;;5032064;28;20391;-72
2023/02/05 01:05:56;;;;;;;2.47;1.30;;;6.30;47.80;;;;;;5032004;28;20087;-71
2023/02/05 01:08:22;;;;;;;2.17;1.00;;;6.30;47.90;;;;;;5031967;28;20056;-71
2023/02/05 01:10:49;;;;;;;2.13;1.40;;;6.30;48.00;;;;;;5032238;28;20124;-71
2023/02/05 01:13:16;;;;;;;2.50;1.27;;;6.30;47.50;;;;;;5032124;28;20538;-71
2023/02/05 01:15:42;;;;;;;2.83;1.13;;;6.30;47.40;;;;;;5032081;28;20061;-71
2023/02/05 01:18:08;;;;;;;2.17;1.10;;;6.20;47.20;;;;;;5031863;28;20068;-71
2023/02/05 01:20:39;;;;;;;2.70;1.10;;;6.20;47.70;;;;;;5031772;28;20029;-72
2023/02/05 01:23:05;;;;;;;1.70;1.03;;;6.20;47.90;;;;;;5031877;28;20084;-72
2023/02/05 01:25:31;;;;;;;1.87;1.20;;;6.20;48.00;;;;;;5031732;28;20025;-72
2023/02/05 01:27:56;;;;;;;2.43;1.27;;;6.20;47.50;;;;;;5031922;28;20038;-71
2023/02/05 01:30:22;;;;;;;2.40;1.20;;;6.20;47.90;;;;;;5035942;28;20036;-71
2023/02/05 01:32:48;;;;;;;3.00;1.30;;;6.10;48.00;;;;;;5035754;28;20029;-71
2023/02/05 01:35:14;;;;;;;3.30;1.23;;;6.10;48.20;;;;;;5035502;28;20049;-72
2023/02/05 01:37:40;;;;;;;1.60;1.00;;;6.00;48.20;;;;;;5035651;28;20029;-72
2023/02/05 01:40:06;;;;;;;1.90;1.10;;;6.00;48.50;;;;;;5035565;28;20033;-71
2023/02/05 01:42:33;;;;;;;2.53;1.17;;;6.00;48.50;;;;;;5034056;28;20029;-71
2023/02/05 01:45:20;;;;;;;2.20;1.57;;;6.00;49.10;;;;;;5035121;28;20480;-71
2023/02/05 01:47:47;;;;;;;4.37;1.30;;;6.00;49.20;;;;;;5035506;28;20059;-72
2023/02/05 01:50:14;;;;;;;1.87;1.10;;;6.00;49.30;;;;;;5035156;28;20037;-71
2023/02/05 01:52:40;;;;;;;2.03;1.17;;;6.00;49.30;;;;;;5034945;28;20112;-71
2023/02/05 01:55:08;;;;;;;2.67;1.20;;;6.00;49.70;;;;;;5034998;28;20156;-71
2023/02/05 01:57:36;;;;;;;3.30;1.50;;;6.00;50.40;;;;;;5034508;28;20113;-71
2023/02/05 02:00:03;;;;;;;2.47;1.23;;;6.00;49.40;;;;;;5032114;28;20045;-72
2023/02/05 02:02:29;;;;;;;3.57;1.50;;;5.90;49.20;;;;;;5032358;28;20521;-71
2023/02/05 02:05:01;;;;;;;2.10;1.20;;;5.90;49.40;;;;;;5032961;28;20112;-71
2023/02/05 02:07:27;;;;;;;1.75;1.05;;;5.90;49.10;;;;;;5034016;28;20080;-71
2023/02/05 02:09:53;;;;;;;2.03;1.10;;;5.80;49.30;;;;;;5033637;28;20037;-71
2023/02/05 02:12:24;;;;;;;4.60;1.60;;;5.80;49.70;;;;;;5033180;28;20035;-72
2023/02/05 02:14:54;;;;;;;1.53;1.00;;;5.80;49.40;;;;;;5032977;28;20484;-71
2023/02/05 02:17:20;;;;;;;2.37;1.30;;;5.80;49.20;;;;;;5032697;28;20037;-72
2023/02/05 02:20:04;;;;;;;2.63;1.40;;;5.80;49.60;;;;;;5032575;28;20112;-71
2023/02/05 02:22:44;;;;;;;2.23;1.30;;;5.70;49.30;;;;;;5032235;28;20445;-71
2023/02/05 02:25:40;;;;;;;2.40;1.20;;;5.70;48.90;;;;;;5032782;28;20048;-72
2023/02/05 02:28:25;;;;;;;2.90;1.40;;;5.60;49.60;;;;;;5030095;28;20109;-71
2023/02/05 02:30:56;;;;;;;1.93;1.20;;;5.60;50.10;;;;;;5033539;28;20033;-72
2023/02/05 02:33:40;;;;;;;2.60;1.20;;;5.60;50.40;;;;;;5033254;28;20508;-72
2023/02/05 02:36:30;;;;;;;1.87;1.30;;;5.60;50.00;;;;;;5032474;28;20165;-72
2023/02/05 02:38:56;;;;;;;2.23;1.30;;;5.60;49.70;;;;;;5033265;28;20041;-71
2023/02/05 02:41:44;;;;;;;2.13;1.10;;;5.50;49.80;;;;;;5032365;28;20057;-72
2023/02/05 02:44:39;;;;;;;2.90;1.20;;;5.50;49.00;;;;;;5032891;28;20033;-71
2023/02/05 02:47:17;;;;;;;3.20;1.20;;;5.50;49.80;;;;;;5033436;28;20038;-71
2023/02/05 02:49:49;;;;;;;2.23;1.20;;;5.40;49.90;;;;;;5031583;28;20083;-71
2023/02/05 02:52:18;;;;;;;3.67;1.23;;;5.40;49.50;;;;;;5033533;28;20034;-72
2023/02/05 02:54:47;;;;;;;1.80;1.10;;;5.50;50.00;;;;;;5032960;28;20046;-71
2023/02/05 02:57:14;;;;;;;2.30;1.27;;;5.50;50.30;;;;;;5033721;28;20598;-71
2023/02/05 02:59:42;;;;;;;1.90;1.20;;;5.50;50.30;;;;;;5033215;28;20033;-72
2023/02/05 03:02:10;;;;;;;2.07;1.20;;;5.50;50.20;;;;;;5033263;28;20049;-71
2023/02/05 03:04:41;;;;;;;2.50;1.30;;;5.50;49.80;;;;;;5033344;28;20104;-71
2023/02/05 03:07:12;;;;;;;2.27;1.20;;;5.50;50.10;;;;;;5032780;28;20044;-71
2023/02/05 03:10:01;;;;;;;2.10;1.10;;;5.50;50.70;;;;;;5033110;28;20033;-71
2023/02/05 03:12:27;;;;;;;2.30;1.10;;;5.50;50.40;;;;;;5032238;28;20037;-71
2023/02/05 03:14:53;;;;;;;2.73;1.00;;;5.50;50.40;;;;;;5033272;28;20690;-70
2023/02/05 03:17:20;;;;;;;2.67;1.40;;;5.50;50.70;;;;;;5033271;28;20105;-71
2023/02/05 03:19:50;;;;;;;3.23;1.40;;;5.50;50.70;;;;;;5033241;28;20064;-71
2023/02/05 03:22:16;;;;;;;2.10;1.13;;;5.40;50.70;;;;;;5032740;28;20092;-71
2023/02/05 03:24:42;;;;;;;1.97;1.10;;;5.40;50.20;;;;;;5033394;28;20104;-71
2023/02/05 03:27:08;;;;;;;2.87;1.20;;;5.40;50.80;;;;;;5033051;28;20113;-71
2023/02/05 03:29:43;;;;;;;2.13;1.20;;;5.30;51.40;;;;;;5033145;28;20030;-71
2023/02/05 03:32:18;;;;;;;2.37;1.23;;;5.40;51.30;;;;;;5033283;28;20045;-71
2023/02/05 03:34:55;;;;;;;2.57;1.20;;;5.30;51.50;;;;;;5032887;28;20037;-71
2023/02/05 03:37:42;;;;;;;2.27;1.20;;;5.30;51.40;;;;;;5032780;28;20030;-70
2023/02/05 03:40:31;;;;;;;1.83;1.33;;;5.30;51.50;;;;;;5033163;28;20619;-71
2023/02/05 03:43:15;;;;;;;1.87;1.03;;;5.20;51.10;;;;;;5022322;28;20037;-70
2023/02/05 03:46:23;;;;;;;4.30;1.37;;;5.20;52.00;;;;;;5032940;28;20044;-70
2023/02/05 03:48:51;;;;;;;2.50;1.33;;;5.20;52.40;;;;;;4995423;28;20038;-70
2023/02/05 03:51:40;;;;;;;2.53;1.27;;;5.10;50.80;;;;;;5031723;28;20033;-70
2023/02/05 03:54:31;;;;;;;2.87;1.50;;;5.10;51.30;;;;;;5031763;28;20058;-71
2023/02/05 03:57:17;;;;;;;2.37;1.20;;;5.10;51.90;;;;;;5033108;28;20115;-71
2023/02/05 03:59:44;;;;;;;3.10;1.30;;;5.10;52.20;;;;;;5033053;28;20061;-70
2023/02/05 04:02:11;;;;;;;2.87;1.30;;;5.10;51.70;;;;;;5032329;28;20045;-71
2023/02/05 04:04:37;;;;;;;2.37;1.13;;;5.00;52.00;;;;;;5032522;28;20144;-71
2023/02/05 04:07:03;;;;;;;4.33;3.93;;;5.00;51.80;;;;;;5032377;28;20256;-70
2023/02/05 04:09:28;;;;;;;3.47;2.33;;;4.90;51.80;;;;;;5032266;28;20104;-71
2023/02/05 04:11:54;;;;;;;2.57;1.67;;;4.90;52.00;;;;;;5032418;28;20150;-71
2023/02/05 04:14:20;;;;;;;4.50;1.80;;;4.90;52.40;;;;;;5032385;28;20152;-71
2023/02/05 04:16:46;;;;;;;2.17;1.30;;;4.90;51.90;;;;;;5030700;28;20033;-71
2023/02/05 04:19:11;;;;;;;6.10;1.37;;;4.80;52.20;;;;;;5032608;28;20033;-71
2023/02/05 04:21:37;;;;;;;1.73;1.10;;;4.80;52.50;;;;;;5031223;28;20033;-71
2023/02/05 04:24:03;;;;;;;2.37;1.10;;;4.90;52.70;;;;;;5031818;28;20038;-71
2023/02/05 04:26:29;;;;;;;3.33;1.10;;;4.80;52.80;;;;;;5031603;28;20037;-71
2023/02/05 04:28:54;;;;;;;3.23;1.80;;;4.80;52.90;;;;;;5031697;28;20064;-71
2023/02/05 04:31:20;;;;;;;2.70;1.30;;;4.80;53.00;;;;;;5032000;28;20033;-71
2023/02/05 04:33:46;;;;;;;4.03;1.50;;;4.80;53.10;;;;;;5031637;28;20033;-71
2023/02/05 04:36:13;;;;;;;5.30;1.60;;;4.70;53.10;;;;;;5031369;28;20037;-71
2023/02/05 04:38:39;;;;;;;2.07;1.17;;;4.70;53.00;;;;;;5031698;28;20033;-70
2023/02/05 04:41:05;;;;;;;4.10;1.47;;;4.70;52.80;;;;;;5033710;28;20095;-71
2023/02/05 04:43:30;;;;;;;2.50;1.33;;;4.70;52.90;;;;;;5032136;28;20041;-71
2023/02/05 04:45:56;;;;;;;3.93;1.30;;;4.60;52.50;;;;;;5031599;28;20037;-71
2023/02/05 04:48:22;;;;;;;2.93;1.30;;;4.60;52.20;;;;;;5031182;28;20104;-71
2023/02/05 04:50:48;;;;;;;2.87;1.20;;;4.70;51.80;;;;;;5031538;28;20033;-71
2023/02/05 04:53:14;;;;;;;2.80;1.20;;;4.60;52.00;;;;;;5031435;28;20529;-71
2023/02/05 04:55:39;;;;;;;2.73;1.20;;;4.60;51.90;;;;;;5031859;28;20123;-70
2023/02/05 04:58:05;;;;;;;2.27;1.10;;;4.60;52.10;;;;;;5031459;28;20116;-71
2023/02/05 05:00:31;;;;;;;2.27;1.13;;;4.60;51.90;;;;;;5030975;28;20048;-71
2023/02/05 05:02:57;;;;;;;3.60;1.20;;;4.50;52.20;;;;;;5031299;28;20045;-70
2023/02/05 05:05:23;;;;;;;2.10;1.20;;;4.50;51.50;;;;;;5031689;28;20461;-71
2023/02/05 05:07:48;;;;;;;4.00;1.37;;;4.50;52.30;;;;;;5031233;28;20108;-71
2023/02/05 05:10:14;;;;;;;4.00;1.50;;;4.50;51.60;;;;;;5031080;28;20037;-71
2023/02/05 05:12:40;;;;;;;3.27;1.40;;;4.50;51.40;;;;;;5031066;28;20060;-71
2023/02/05 05:15:07;;;;;;;2.80;1.33;;;4.50;50.80;;;;;;5030195;28;20037;-71
2023/02/05 05:17:33;;;;;;;2.97;1.23;;;4.50;51.30;;;;;;5030532;28;20032;-71
2023/02/05 05:19:59;;;;;;;1.90;1.33;;;4.50;51.50;;;;;;5030305;28;20491;-71
2023/02/05 05:22:25;;;;;;;2.63;1.20;;;4.40;51.30;;;;;;5030665;28;20034;-71
2023/02/05 05:24:51;;;;;;;2.73;1.30;;;4.40;51.60;;;;;;5030800;28;20038;-71
2023/02/05 05:27:17;;;;;;;2.60;1.17;;;4.40;51.70;;;;;;5030225;28;20041;-71
2023/02/05 05:29:45;;;;;;;2.83;1.30;;;4.40;51.90;;;;;;5030230;28;20524;-71
2023/02/05 05:32:11;;;;;;;2.70;1.27;;;4.40;51.90;;;;;;5031011;28;20048;-71
2023/02/05 05:34:37;;;;;;;2.33;1.00;;;4.40;52.20;;;;;;5031013;28;20598;-71
2023/02/05 05:37:03;;;;;;;3.67;1.13;;;4.30;52.20;;;;;;5031206;28;20053;-70
2023/02/05 05:44:57;;;;;;;3.13;1.30;;;4.30;52.40;;;;;;5031187;28;20113;-71
2023/02/05 05:47:23;;;;;;;1.90;1.10;;;4.30;52.60;;;;;;5031498;28;20041;-71
2023/02/05 05:49:49;;;;;;;5.63;1.27;;;4.30;52.50;;;;;;5031052;28;20030;-71
2023/02/05 05:52:14;;;;;;;2.13;1.03;;;4.20;52.50;;;;;;5031374;28;20040;-71
2023/02/05 05:54:40;;;;;;;2.77;1.33;;;4.30;52.80;;;;;;5031036;28;20045;-70
2023/02/05 05:57:07;;;;;;;1.57;0.90;;;4.20;52.10;;;;;;5031090;28;20053;-71
2023/02/05 05:59:32;;;;;;;1.60;0.97;;;4.20;52.10;;;;;;5031738;28;20033;-70
2023/02/05 06:02:00;;;;;;;2.07;1.13;;;4.30;51.70;;;;;;5031053;28;20399;-71
2023/02/05 06:04:26;;;;;;;2.27;1.30;;;4.20;51.30;;;;;;5031203;28;20041;-70
2023/02/05 06:06:53;;;;;;;2.53;1.20;;;4.20;51.60;;;;;;5031313;28;20029;-71
2023/02/05 06:09:20;;;;;;;2.67;1.30;;;4.20;51.50;;;;;;5031416;28;20519;-71
2023/02/05 06:11:49;;;;;;;3.10;1.30;;;4.30;52.10;;;;;;5031726;28;20127;-71
2023/02/05 06:14:15;;;;;;;1.97;1.30;;;4.20;52.10;;;;;;5031777;28;20041;-71
2023/02/05 06:16:41;;;;;;;3.67;1.60;;;4.30;51.90;;;;;;5034442;28;20033;-71
2023/02/05 06:19:07;;;;;;;2.50;1.97;;;4.30;52.00;;;;;;5035440;28;20038;-71
2023/02/05 06:21:32;;;;;;;4.43;1.93;;;4.30;51.70;;;;;;5035278;28;20048;-70
2023/02/05 06:23:58;;;;;;;2.70;1.53;;;4.30;51.60;;;;;;5034993;28;20117;-71
2023/02/05 06:26:24;;;;;;;3.20;1.73;;;4.30;51.50;;;;;;5034895;28;20038;-71
2023/02/05 06:28:50;;;;;;;1.73;1.00;;;4.30;51.70;;;;;;5034917;28;20048;-70
2023/02/05 06:31:19;;;;;;;3.73;1.10;;;4.30;51.70;;;;;;5035251;28;20108;-71
2023/02/05 06:33:44;;;;;;;2.27;1.17;;;4.30;51.60;;;;;;5034950;28;20048;-71
2023/02/05 06:36:10;;;;;;;2.30;1.30;;;4.30;51.80;;;;;;5034909;28;20399;-71
2023/02/05 06:38:36;;;;;;;2.30;1.23;;;4.30;51.80;;;;;;5035008;28;20041;-71
2023/02/05 06:41:01;;;;;;;5.73;1.40;;;4.30;52.10;;;;;;5034957;28;20030;-71
2023/02/05 06:43:27;;;;;;;4.60;1.30;;;4.30;52.40;;;;;;5034810;28;20033;-70
2023/02/05 06:45:54;;;;;;;4.90;1.30;;;4.30;52.60;;;;;;5033414;28;20037;-71
2023/02/05 06:48:20;;;;;;;3.63;1.37;;;4.30;52.90;;;;;;5034705;28;20045;-70
2023/02/05 06:50:46;;;;;;;3.47;1.70;;;4.30;52.90;;;;;;5034781;28;20045;-70
2023/02/05 06:53:12;;;;;;;3.80;1.30;;;4.30;52.20;;;;;;5034189;28;20029;-70
2023/02/05 06:55:38;;;;;;;2.93;1.37;;;4.40;52.50;;;;;;5034092;28;20041;-70
2023/02/05 06:58:04;;;;;;;2.63;1.27;;;4.40;52.60;;;;;;5034259;28;20048;-71
2023/02/05 07:00:30;;;;;;;2.00;1.10;;;4.40;52.70;;;;;;5034104;28;20531;-71
2023/02/05 07:02:55;;;;;;;3.10;1.40;;;4.40;53.10;;;;;;5034487;28;20188;-71
2023/02/05 07:05:21;;;;;;;2.33;1.10;;;4.40;53.10;;;;;;5034357;28;20045;-70
2023/02/05 07:07:47;;;;;;;1.80;1.10;;;4.40;53.20;;;;;;5034088;28;20480;-70
2023/02/05 07:10:13;;;;;;;2.03;1.07;;;4.40;52.60;;;;;;5034201;28;20037;-70
2023/02/05 07:12:39;;;;;;;2.80;1.53;;;4.40;53.00;;;;;;5034178;28;20112;-70
2023/02/05 07:15:05;;;;;;;3.63;1.50;;;4.50;53.20;;;;;;5034031;28;20064;-70
2023/02/05 07:17:31;;;;;;;3.57;1.50;;;4.50;53.30;;;;;;5033961;28;20484;-70
2023/02/05 07:19:57;;;;;;;5.57;1.47;;;4.50;53.30;;;;;;5034181;28;20025;-71
2023/02/05 07:22:23;;;;;;;2.90;1.53;;;4.50;53.40;;;;;;5034198;28;20021;-70
2023/02/05 07:24:49;;;;;;;3.57;1.67;;;4.50;53.50;;;;;;5033863;28;20113;-70
2023/02/05 07:27:15;;;;;;;7.23;1.90;;;4.50;53.40;;;;;;5033590;28;20445;-70
2023/02/05 07:29:41;;;;;;;5.27;1.93;;;4.50;53.50;;;;;;5033894;28;20080;-70
2023/02/05 07:32:06;;;;;;;7.70;2.27;;;4.60;54.40;;;;;;5033763;28;20061;-71
2023/02/05 07:34:32;;;;;;;5.37;2.20;;;4.60;54.20;;;;;;5033252;28;20053;-71
2023/02/05 07:36:58;;;;;;;4.80;1.90;;;4.60;54.60;;;;;;5033160;28;20500;-70
2023/02/05 07:39:23;;;;;;;4.47;2.60;;;4.60;54.80;;;;;;5033240;28;20056;-71
2023/02/05 07:41:52;;;;;;;6.30;2.57;;;4.60;54.70;;;;;;5033423;28;20029;-71
2023/02/05 07:44:18;;;;;;;7.07;2.33;;;4.70;54.60;;;;;;5033302;28;20033;-71
2023/02/05 07:46:44;;;;;;;6.13;2.47;;;4.70;54.70;;;;;;5033047;28;20045;-71
2023/02/05 07:49:10;;;;;;;4.37;2.47;;;4.70;54.60;;;;;;5033035;28;20124;-71
2023/02/05 07:51:36;;;;;;;4.30;2.50;;;4.60;54.70;;;;;;5032812;28;20030;-71
2023/02/05 07:54:06;;;;;;;6.30;2.80;;;4.70;55.10;;;;;;5032875;28;20048;-71
2023/02/05 07:56:32;;;;;;;6.00;2.87;;;4.70;55.20;;;;;;5032927;28;20201;-71
2023/02/05 07:58:58;;;;;;;6.40;3.20;;;4.70;55.40;;;;;;5033249;28;20123;-71
2023/02/05 08:01:24;;;;;;;5.70;2.93;;;4.70;55.50;;;;;;5033521;28;20049;-69
2023/02/05 08:03:49;;;;;;;6.67;2.70;;;4.80;55.20;;;;;;5033041;28;20030;-70
2023/02/05 08:06:15;;;;;;;5.10;2.60;;;4.80;55.90;;;;;;5033044;28;20038;-70
2023/02/05 08:08:41;;;;;;;6.33;3.07;;;4.80;55.40;;;;;;5031373;28;20037;-71
2023/02/05 08:11:11;;;;;;;7.37;3.27;;;4.80;55.20;;;;;;5031659;28;20033;-70
2023/02/05 08:13:37;;;;;;;3.90;2.07;;;4.80;55.00;;;;;;5031122;28;20033;-71
2023/02/05 08:16:05;;;;;;;5.43;2.50;;;4.80;54.60;;;;;;5030440;28;20112;-70
2023/02/05 08:18:30;;;;;;;4.73;2.10;;;4.90;54.50;;;;;;5030644;28;20542;-71
2023/02/05 08:20:56;;;;;;;4.67;2.10;;;4.90;54.40;;;;;;5028637;28;20069;-71
2023/02/05 08:23:22;;;;;;;5.73;2.70;;;4.90;54.20;;;;;;5027734;28;20041;-71
2023/02/05 08:25:52;;;;;;;6.27;2.50;;;4.90;54.40;;;;;;5029138;28;20476;-70
2023/02/05 08:28:18;;;;;;;5.60;2.23;;;4.90;54.40;;;;;;5026954;28;20071;-71
2023/02/05 08:30:43;;;;;;;4.20;2.03;;;5.00;54.80;;;;;;5031544;28;20038;-71
2023/02/05 08:33:09;;;;;;;4.23;1.50;;;5.00;54.50;;;;;;5030902;28;20060;-71
2023/02/05 08:35:36;;;;;;;4.17;1.87;;;5.00;53.90;;;;;;5031390;28;20060;-71
2023/02/05 08:38:02;;;;;;;5.50;1.90;;;5.00;53.60;;;;;;5029825;28;20108;-71
2023/02/05 08:40:27;;;;;;;4.53;1.80;;;5.00;54.00;;;;;;5030922;28;20087;-71
2023/02/05 08:42:56;;;;;;;4.23;1.70;;;5.00;53.60;;;;;;5031519;28;20041;-71
2023/02/05 08:45:23;;;;;;;3.23;1.73;;;5.00;52.40;;;;;;5031918;28;20033;-71
2023/02/05 08:47:49;;;;;;;6.13;1.80;;;5.00;51.80;;;;;;5032952;28;20030;-71
2023/02/05 08:50:15;;;;;;;2.97;1.63;;;5.00;51.80;;;;;;5031706;28;20484;-70
2023/02/05 08:52:40;;;;;;;4.53;2.10;;;5.00;51.80;;;;;;5029907;28;20037;-69
2023/02/05 08:55:08;;;;;;;3.70;1.90;;;5.10;51.80;;;;;;5027953;28;20060;-70
2023/02/05 08:57:34;;;;;;;3.77;1.90;;;5.10;52.20;;;;;;5029238;28;20036;-70
2023/02/05 08:59:59;;;;;;;4.70;1.60;;;5.10;52.60;;;;;;5031101;28;20037;-70
2023/02/05 09:02:25;;;;;;;3.67;1.60;;;5.10;53.10;;;;;;5031367;28;20534;-71
2023/02/05 09:04:51;;;;;;;9.37;2.17;;;5.10;53.00;;;;;;5031415;28;20415;-72
2023/02/05 09:07:16;;;;;;;4.37;1.97;;;5.10;53.10;;;;;;5032337;28;20092;-71
2023/02/05 09:09:43;;;;;;;7.60;2.23;;;5.10;53.00;;;;;;5031270;28;20460;-71
2023/02/05 09:12:09;;;;;;;3.50;1.80;;;5.10;53.20;;;;;;5030748;28;20087;-71
2023/02/05 09:14:36;;;;;;;6.03;2.40;;;5.20;53.70;;;;;;5029109;28;20045;-72
2023/02/05 09:17:04;;;;;;;5.63;2.00;;;5.20;54.10;;;;;;5030930;28;20041;-72
2023/02/05 09:19:33;;;;;;;5.03;1.97;;;5.20;53.70;;;;;;5032660;28;20515;-71
2023/02/05 09:21:59;;;;;;;3.27;1.77;;;5.20;53.60;;;;;;5030290;28;20088;-71
2023/02/05 09:24:25;;;;;;;4.27;1.80;;;5.20;53.20;;;;;;5030101;28;20041;-71
2023/02/05 09:26:51;;;;;;;3.27;1.80;;;5.30;52.90;;;;;;5030856;28;20029;-71
2023/02/05 09:29:16;;;;;;;3.10;1.67;;;5.30;52.90;;;;;;5031869;28;20033;-71
2023/02/05 09:31:42;;;;;;;4.40;1.70;;;5.30;52.80;;;;;;5031721;28;20039;-71
2023/02/05 09:34:08;;;;;;;3.73;1.70;;;5.40;53.20;;;;;;5029264;28;20482;-71
2023/02/05 09:36:34;;;;;;;3.20;1.50;;;5.40;53.50;;;;;;5029487;28;20091;-71
2023/02/05 09:38:59;;;;;;;3.30;1.60;;;5.50;53.40;;;;;;5030236;28;20041;-71
2023/02/05 09:41:48;;;;;;;2.90;1.63;;;5.50;52.40;;;;;;5031186;28;20103;-71
2023/02/05 09:44:17;;;;;;;2.97;1.33;;;5.60;51.60;;;;;;5032306;28;20041;-72
2023/02/05 09:46:43;;;;;;;2.67;1.53;;;5.60;50.90;;;;;;5032499;28;20030;-71
2023/02/05 09:49:26;;;;;;;3.30;1.50;;;5.60;51.30;;;;;;5033375;28;20034;-71
2023/02/05 09:52:01;;;;;;;2.75;1.85;;;5.60;51.10;;;;;;5036602;28;20071;-71
2023/02/05 09:54:38;;;;;;;2.53;1.40;;;5.70;51.50;;;;;;5035796;28;20049;-72
2023/02/05 09:57:09;;;;;;;4.53;1.70;;;5.60;50.80;;;;;;5036088;28;20040;-72
2023/02/05 09:59:35;;;;;;;3.33;1.70;;;5.60;51.00;;;;;;5033486;28;20038;-71
2023/02/05 10:02:31;;;;;;;5.70;2.00;;;5.60;50.50;;;;;;5033663;28;20098;-72
2023/02/05 10:04:57;;;;;;;5.00;1.70;;;5.60;50.30;;;;;;5035085;28;20057;-72
2023/02/05 10:08:03;;;;;;;3.17;1.80;;;5.60;49.90;;;;;;5034749;28;20061;-72
2023/02/05 10:10:43;;;;;;;4.53;1.70;;;5.70;50.40;;;;;;5036347;28;20508;-72
2023/02/05 10:13:35;;;;;;;2.77;1.60;;;5.70;50.60;;;;;;5035743;28;20021;-72
2023/02/05 10:16:22;;;;;;;2.65;1.35;;;5.70;49.80;;;;;;5035973;28;20052;-72
2023/02/05 10:19:37;;;;;;;2.90;1.60;;;5.70;50.50;;;;;;5036061;28;20044;-72
2023/02/05 10:22:10;;;;;;;4.87;2.00;;;5.70;50.90;;;;;;5035631;28;20167;-72
2023/02/05 10:25:24;;;;;;;3.77;2.00;;;5.70;51.00;;;;;;5035737;28;20076;-72
2023/02/05 10:27:52;;;;;;;3.10;1.65;;;5.70;50.40;;;;;;5035367;28;20038;-72
2023/02/05 10:30:56;;;;;;;4.50;2.00;;;5.70;50.70;;;;;;5035662;28;20088;-72
2023/02/05 10:33:54;;;;;;;2.60;1.70;;;5.80;50.20;;;;;;5035943;28;20037;-72
2023/02/05 10:36:23;;;;;;;4.40;2.10;;;5.80;50.10;;;;;;5035726;28;20072;-72
2023/02/05 10:38:53;;;;;;;4.70;1.80;;;5.80;50.20;;;;;;5035511;28;20499;-72
2023/02/05 10:41:51;;;;;;;2.47;1.60;;;5.80;50.20;;;;;;5035651;28;20029;-72
2023/02/05 10:44:23;;;;;;;2.83;1.53;;;5.80;51.00;;;;;;5021333;28;20045;-72
2023/02/05 10:46:54;;;;;;;2.22;1.40;;;5.80;50.90;;;;;;5035529;28;20488;-72
2023/02/05 10:49:36;;;;;;;3.13;1.60;;;5.90;50.50;;;;;;5033998;28;20408;-73
2023/02/05 11:02:11;;;;;;;3.10;1.53;;;6.00;50.40;;;;;;5034305;28;20045;-72
2023/02/05 11:04:59;;;;;;;4.33;2.00;;;6.00;50.60;;;;;;5035060;28;20069;-72
2023/02/05 11:07:33;;;;;;;3.17;1.60;;;6.00;50.70;;;;;;5033860;28;20120;-72
2023/02/05 11:10:17;;;;;;;4.20;2.10;;;6.00;50.30;;;;;;5035029;28;20025;-72
2023/02/05 11:12:45;;;;;;;3.67;2.03;;;6.10;50.30;;;;;;5034680;28;20033;-72
2023/02/05 11:15:24;;;;;;;4.40;1.93;;;6.10;50.40;;;;;;5034694;28;20111;-72
2023/02/05 11:17:57;;;;;;;2.20;1.40;;;6.10;50.80;;;;;;5035023;28;20033;-73
2023/02/05 11:20:26;;;;;;;3.87;1.70;;;6.10;50.70;;;;;;5034749;28;20042;-72
2023/02/05 11:23:06;;;;;;;3.83;1.67;;;6.10;50.60;;;;;;5034984;28;20092;-72
2023/02/05 11:25:31;;;;;;;4.50;1.70;;;6.10;50.90;;;;;;5050238;28;20038;-73
2023/02/05 11:28:02;;;;;;;3.73;1.50;;;6.10;51.00;;;;;;5034883;28;20555;-72
2023/02/05 11:37:17;;;;;;;4.90;2.27;;;6.20;50.60;;;;;;5033914;28;20113;-72
2023/02/05 11:39:53;;;;;;;3.00;1.67;;;6.20;50.90;;;;;;5049460;28;20033;-72
2023/02/05 11:42:23;;;;;;;3.87;1.93;;;6.30;51.10;;;;;;5033914;28;20034;-72
2023/02/05 11:44:59;;;;;;;5.53;1.70;;;6.30;50.20;;;;;;5034016;28;20037;-72
2023/02/05 11:47:34;;;;;;;4.00;1.80;;;6.30;50.10;;;;;;5034446;28;20030;-72
2023/02/05 11:50:02;;;;;;;3.03;1.53;;;6.30;50.30;;;;;;5034231;28;20041;-72
2023/02/05 11:52:50;;;;;;;3.20;1.60;;;6.40;50.30;;;;;;5034182;28;20034;-72
2023/02/05 11:58:38;;;;;;;4.60;2.03;;;6.30;50.30;;;;;;5032235;28;20029;-72
2023/02/05 12:01:32;;;;;;;3.07;1.70;;;6.40;50.80;;;;;;5031246;28;20057;-72
2023/02/05 12:04:17;;;;;;;2.47;1.57;;;6.40;50.90;;;;;;5033144;28;20106;-72
2023/02/05 12:06:56;;;;;;;2.80;1.60;;;6.40;49.90;;;;;;5034098;28;20037;-72
2023/02/05 12:09:46;;;;;;;3.90;1.40;;;6.40;50.10;;;;;;5033809;28;20030;-72
2023/02/05 12:15:56;;;;;;;6.77;2.07;;;6.40;51.00;;;;;;5032805;28;20060;-72
2023/02/05 12:18:37;;;;;;;4.80;1.43;;;6.40;50.30;;;;;;5033375;28;20064;-72
2023/02/05 12:21:18;;;;;;;3.73;1.80;;;6.40;50.30;;;;;;5033621;28;20472;-72
2023/02/05 12:24:17;;;;;;;3.30;1.67;;;6.40;50.50;;;;;;5031438;28;20037;-72
2023/02/05 12:26:46;;;;;;;3.23;1.73;;;6.40;50.70;;;;;;5030986;28;20564;-72
2023/02/05 12:29:30;;;;;;;3.33;1.60;;;6.40;51.00;;;;;;5031468;28;20029;-72
2023/02/05 12:38:54;;;;;;;4.63;1.80;;;6.50;51.20;;;;;;5032330;28;20083;-72
2023/02/05 12:41:43;;;;;;;3.77;1.63;;;6.50;51.30;;;;;;5033237;28;20132;-71
2023/02/05 12:44:43;;;;;;;4.70;1.80;;;6.50;51.30;;;;;;5033360;28;20033;-72
2023/02/05 12:47:28;;;;;;;5.10;1.80;;;6.60;51.50;;;;;;5031579;28;20491;-72
2023/02/05 12:50:06;;;;;;;3.97;1.90;;;6.60;51.10;;;;;;5033048;28;20029;-72
2023/02/05 12:52:48;;;;;;;3.97;1.73;;;6.60;51.10;;;;;;5033066;28;20108;-72
2023/02/05 12:55:48;;;;;;;4.67;2.17;;;6.60;51.50;;;;;;5033120;28;20380;-72
2023/02/05 12:58:16;;;;;;;4.73;1.63;;;6.60;51.90;;;;;;4995631;28;20033;-72
2023/02/05 13:03:55;;;;;;;2.90;1.83;;;6.70;51.70;;;;;;5032100;28;20519;-71
2023/02/05 13:06:32;;;;;;;3.47;1.80;;;6.70;51.00;;;;;;5032378;28;20550;-71
2023/02/05 13:12:52;;;;;;;2.90;1.83;;;6.70;51.90;;;;;;5030100;28;20033;-71
2023/02/05 13:15:23;;;;;;;3.37;1.80;;;6.60;52.20;;;;;;5028287;28;20056;-72
2023/02/05 13:18:16;;;;;;;3.40;1.87;;;6.60;52.00;;;;;;5030234;28;20041;-72
2023/02/05 13:32:53;;;;;;;2.87;2.00;;;6.60;50.70;;;;;;5031517;28;20403;-71
2023/02/05 13:35:21;;;;;;;4.00;2.20;;;6.70;51.20;;;;;;5031721;28;20415;-71
2023/02/05 13:41:24;;;;;;;3.73;1.80;;;6.90;50.20;;;;;;5031941;28;20033;-71
2023/02/05 13:50:52;;;;;;;3.80;2.00;;;7.00;50.00;;;;;;5032674;28;20079;-71
2023/02/05 13:57:14;;;;;;;3.63;1.77;;;7.00;50.60;;;;;;5032327;28;20147;-71
2023/02/05 14:07:02;;;;;;;5.13;1.73;;;7.00;51.00;;;;;;5006336;28;20478;-71
2023/02/05 14:09:55;;;;;;;3.78;1.73;;;7.10;51.40;;;;;;4993845;28;20559;-71
2023/02/05 14:12:22;;;;;;;;;;;7.00;51.80;;;;;;4994225;28;20044;-71
2023/02/05 14:21:32;;;;;;;3.13;1.90;;;7.00;53.80;;;;;;5011871;28;20037;-71
2023/02/05 14:24:02;;;;;;;4.03;2.00;;;7.00;53.80;;;;;;5012108;28;20030;-71
2023/02/05 14:27:05;;;;;;;3.67;1.77;;;7.00;53.70;;;;;;5012005;28;20034;-71
2023/02/05 14:38:32;;;;;;;6.30;2.38;;;7.00;55.40;;;;;;5015323;28;20594;-72
2023/02/05 14:41:13;;;;;;;4.67;2.37;;;7.00;55.70;;;;;;5014681;28;20109;-72
2023/02/05 14:50:55;;;;;;;4.47;2.50;;;6.90;56.80;;;;;;4986560;28;20044;-72
2023/02/05 14:56:49;;;;;;;5.40;2.13;;;6.90;57.20;;;;;;5015259;28;20139;-72
2023/02/05 15:06:36;;;;;;;4.90;2.60;;;6.80;57.50;;;;;;5014001;28;20049;-71